Terminal Aerodrome Forecast
Issued by NWS

Home | Current Version | Previous Version | Text Only | Print | Product List | Glossary On
Versions: 1 2 3 4 5 6 7 8 9 10 11 12
000
FTUS46 KSEW 061134
TAFBFI
TAF
KBFI 061134Z 0612/0712 17007KT P6SM SCT150
     FM061800 20007KT P6SM SCT200
     FM062100 28005KT P6SM SCT200
     FM070300 VRB03KT P6SM SCT200=

USA.gov is the U.S. government's official web portal to all federal, state and local government web resources and services.